Tropical Cyclones
[Index]
Main Index Home Page Stock Weather Photos Extreme Storms Discussion Storm News and Storm Chasing Reports Tropical Cyclones / Hurricanes / Typhoons Weather Data and Links Wild Fires / Bushfires Weather Observation Techniques Weather Picture Catalogue Tornado Pictures and Reports Stock Video Footage and DVDs for sale
Season 2008-2009 Tropical Cyclone HETTIE Track Map
Season 2008-2009 Summaries (Operational Data): [AU] [SIO] [SPAC] [SH]
<<- Previous TC | 2008-2009 Season | Next TC ->>

click for intensity scale information  Lat/long Grid: Show Hide

 Date Labels: Show Hide

Operational Tropical Cyclone Data : JTWC Advisories

Name: HETTIE
Number: 0911

25 Jan 2008 21:00 UTC to 31 Jan 2008 21:00 UTC

    date/time    lat    long     hPa   cat  kts
2008-01-25 21   15.4   178.4W   1003         25          
2008-01-26 06   15.4   176.6W   1002         25          
2008-01-26 21   16.9   176.7W   1001         30          
2008-01-27 00   17.7   176.1W   1000         30          
2008-01-27 06   18.2   176.2W   1000         30          
2008-01-27 12   18.7   176.6W    998         30          
2008-01-27 18   19.8   176.8W    997         30          
2008-01-28 00   20.3   177.2W    997         30          
2008-01-28 06   21.0   177.4W    997         30          
2008-01-28 09   21.8   177.3W    995    1    35          
2008-01-28 12   22.0   177.4W    993    1    35          
2008-01-28 18   22.0   177.9W    995    1    35          
2008-01-29 00   22.6   177.8W    995    1    35          
2008-01-29 06   23.0   177.9W    997         30          
2008-01-29 12   23.2   178.1W    998         30          
2008-01-29 18   23.7   178.5W   1000         30          
2008-01-30 00   24.3   178.9W   1000         30          
2008-01-30 09   24.4   179.2W   1000         30          
2008-01-30 23   23.7   179.7    1004         25          
2008-01-31 06   23.1   179.6    1004         25          
2008-01-31 21   23.9   179.1    1006         20          
Winds are 10-min average.

Tropical cyclone tracks developed by Michael Bath using operational warnings and advisories and Google Maps.


[Australian Severe Weather index] [Copyright Notice] [Email Contacts] [Search This Site] [Privacy Policy]
Document: tropical_cyclone_hettie.htm Updated: 28 May 2013